Weather observations for the past three days for
Decatur Airport
Imperial (Metric)
Date Time (cdt) Wind (mph) Vis. (mi.) Weather Sky Cond. Temperature (ºF) Relative Humidity Wind Chill (°F) Heat Index (°F) Pressure Precipitation (in)
Air Dwpt 6 hour altimeter (in) sea level (mb) 1 hr 3 hr 6 hr
Max. Min.
31 19:54 S 9 10.00 Fair CLR 84.9 69.1 59% 89 29.97 1014.2
31 18:54 S 10 10.00 Fair CLR 88 69.1 95 88 54% 92 29.97 1014.2
31 17:54 S 9 10.00 Fair CLR 91.9 69.1 47% 97 29.97 1014.2
31 16:54 S 12 10.00 Fair CLR 93.9 68 43% 98 29.98 1014.3
31 15:54 S 14 10.00 Fair CLR 95 68 41% 100 29.98 1014.5
31 14:54 S 13 10.00 Fair CLR 93.9 66.9 41% 98 29.99 1014.9
31 13:54 S 14 10.00 Fair CLR 93 66.9 42% 97 30.01 1015.5
31 12:54 SW 12 10.00 Fair CLR 91 66.9 91 70 45% 94 30.03 1016.1
31 11:54 SW 12 10.00 Fair CLR 89.1 66 47% 92 30.04 1016.6
31 10:54 SW 14 10.00 Fair CLR 86 66 51% 88 30.05 1016.8
31 09:54 SW 12 10.00 Fair CLR 82.9 64.9 55% 85 30.04 1016.7
31 08:54 SW 13 10.00 Fair CLR 79 63 58% 81 30.05 1016.9
31 07:54 SW 10 10.00 Fair CLR 73.9 64 71% 30.04 1016.5
31 06:54 SW 7 10.00 Fair CLR 70 63 73.9 69.1 79% 30.02 1015.9
31 05:54 SW 7 10.00 Fair CLR 70 63 79% 30.02 1015.8
31 04:54 S 8 10.00 Fair CLR 71.1 62.1 73% 30.01 1015.5
31 03:54 SW 10 10.00 Fair CLR 73 62.1 69% 30 1015.2
31 02:54 S 6 10.00 Fair CLR 71.1 63 76% 30 1015.3
31 01:54 S 7 10.00 Fair CLR 73 63 71% 30.01 1015.6
31 00:54 S 6 10.00 Fair CLR 73 63 82.9 73 71% 30.02 1015.9
30 23:54 S 6 10.00 Fair CLR 75.9 62.1 62% 78 30.02 1015.7
30 22:54 S 10 10.00 Fair CLR 77 61 58% 79 30.01 1015.6
30 21:54 S 10 10.00 Fair CLR 77 62.1 60% 79 30.02 1015.8
30 20:54 S 9 10.00 Fair CLR 78.1 63 60% 80 30.01 1015.8
30 19:54 S 8 10.00 Fair CLR 79 64 60% 81 30 1015.4
30 18:54 S 7 10.00 Fair CLR 82.9 64.9 90 82.9 55% 85 30.01 1015.5
30 17:54 S 9 10.00 Fair CLR 86 62.1 45% 87 30 1015.3
30 16:54 S 12 10.00 Fair CLR 87.1 62.1 43% 88 30 1015.2
30 15:54 S 13 G 20 10.00 Fair CLR 89.1 59 36% 88 30.01 1015.6
30 14:54 S 9 10.00 Fair CLR 88 62.1 42% 88 30.03 1016.3
30 13:54 SW 14 G 21 10.00 Fair CLR 88 64 45% 89 30.04 1016.5
30 12:54 SW 10 10.00 Fair CLR 87.1 64.9 87.1 69.1 48% 89 30.06 1017.3
30 11:54 SW 15 G 21 10.00 Fair CLR 86 64.9 49% 88 30.08 1017.9
30 10:54 SW 15 G 22 10.00 Fair CLR 82.9 66 57% 85 30.07 1017.7
30 09:54 Vrbl 5 10.00 Fair CLR 78.1 66 67% 80 30.06 1017.5
30 08:54 S 10 10.00 Fair CLR 73.9 64 71% 30.05 1017.2
30 07:54 S 8 10.00 A Few Clouds FEW120 71.1 63 76% 30.06 1017.2
30 06:54 S 5 10.00 Overcast OVC110 69.1 62.1 70 68 78% 30.05 1017.2
30 05:54 S 9 10.00 A Few Clouds FEW120 69.1 62.1 78% 30.04 1016.6
30 04:54 S 8 10.00 Fair CLR 69.1 62.1 78% 30.04 1016.7
30 03:54 S 9 10.00 Fair CLR 68 63 84% 30.04 1016.8
30 02:54 S 9 10.00 Fair CLR 70 63 79% 30.05 1017.0
30 01:54 S 7 10.00 Fair CLR 70 63 79% 30.05 1017.1
30 00:54 S 5 10.00 Fair CLR 69.1 63 78.1 69.1 81% 30.07 1017.6
29 23:54 S 6 10.00 Fair CLR 70 63 79% 30.07 1017.6
29 22:54 SE 7 10.00 Fair CLR 70 63 79% 30.07 1017.6
29 21:54 SE 7 10.00 Fair CLR 71.1 64 79% 30.07 1017.7
29 20:54 SE 6 10.00 Fair CLR 72 64 76% 30.07 1017.7
29 19:54 SE 7 10.00 Fair CLR 73.9 62.1 67% 30.04 1016.9
29 18:54 SE 9 10.00 Fair CLR 78.1 63 84 77 60% 80 30.04 1016.8
29 17:54 S 12 10.00 Fair CLR 81 63 54% 82 30.05 1017.3
29 16:54 S 12 10.00 Fair CLR 82.9 62.1 49% 84 30.07 1018.0
29 15:54 S 12 10.00 Fair CLR 84 61 46% 84 30.09 1018.6
29 14:54 S 7 10.00 Fair CLR 82 60.1 47% 82 30.11 1019.3
29 13:54 SW 9 10.00 A Few Clouds FEW049 82.9 61 48% 83 30.13 1019.7
29 12:54 S 8 10.00 Fair CLR 82 64 82 59 55% 84 30.14 1020.2
29 11:54 SE 10 10.00 Fair CLR 80.1 62.1 54% 81 30.17 1021.2
29 10:54 S 9 10.00 Fair CLR 77 62.1 60% 79 30.19 1021.8
29 09:54 S 8 10.00 Fair CLR 75 63 66% 77 30.18 1021.6
29 08:54 S 8 10.00 Fair CLR 73 61 66% 30.18 1021.7
29 07:54 Calm 10.00 Fair CLR 68 62.1 81% 30.18 1021.4
29 06:54 Calm 10.00 Fair CLR 59 57 64 57.9 93% 30.16 1020.9
29 05:54 Calm 10.00 Fair CLR 59 57 93% 30.14 1020.2
29 04:54 Calm 10.00 Fair CLR 60.1 57 90% 30.14 1020.3
29 03:54 Calm 10.00 Fair CLR 60.1 57.9 93% 30.15 1020.5
29 02:54 Calm 10.00 Fair CLR 60.1 59 96% 30.15 1020.6
29 01:54 Calm 10.00 Fair CLR 62.1 59 90% 30.15 1020.4
29 00:54 Calm 10.00 Fair CLR 64 60.1 78.1 62.1 87% 30.15 1020.5
28 23:54 Calm 10.00 Fair CLR 64.9 62.1 90% 30.15 1020.6
28 22:54 Calm 10.00 Fair CLR 66 63 90% 30.15 1020.4
28 21:54 Calm 10.00 Fair CLR 66.9 64 91% 30.14 1020.3
28 20:54 E 3 10.00 Fair CLR 70 64.9 84% 30.13 1019.7
Date Time (cdt) Wind (mph) Vis. (mi.) Weather Sky Cond. Air Dwpt Max. Min. Relative Humidity Wind Chill (°F) Heat Index (°F) altimeter (in) sea level (mb) 1 hr 3 hr 6 hr
6 hour
Temperature (ºF) Pressure Precipitation (in)